Terminal Aerodrome Forecast
Issued by NWS Wilmington, NC

Home | Current Version | Previous Version | Text Only | Print | Product List | Glossary On
Versions: 1 2 3 4 5 6 7 8 9 10 11 12 13
002
FTUS42 KILM 131720
TAFLBT
TAF
KLBT 131720Z 1318/1418 34014G22KT P6SM SKC
     FM132200 31011KT P6SM SKC
     FM140200 35006KT P6SM SKC
     FM141500 05008KT P6SM BKN100=

USA.gov is the U.S. government's official web portal to all federal, state and local government web resources and services.